sensor_id;sensor_type;location;lat;lon;timestamp;P1;durP1;ratioP1;P2;durP2;ratioP2
11535;SDS011;5824;49.336;8.652;2022-07-01T00:00:27;4.30;;;1.70;;
11535;SDS011;5824;49.336;8.652;2022-07-01T00:02:52;2.10;;;1.67;;
11535;SDS011;5824;49.336;8.652;2022-07-01T00:05:18;2.90;;;1.57;;
11535;SDS011;5824;49.336;8.652;2022-07-01T00:07:44;3.67;;;1.83;;
11535;SDS011;5824;49.336;8.652;2022-07-01T00:10:10;4.13;;;1.97;;
11535;SDS011;5824;49.336;8.652;2022-07-01T00:12:35;8.40;;;1.63;;
11535;SDS011;5824;49.336;8.652;2022-07-01T00:15:01;10.10;;;2.33;;
11535;SDS011;5824;49.336;8.652;2022-07-01T00:17:27;2.83;;;2.00;;
11535;SDS011;5824;49.336;8.652;2022-07-01T00:19:53;2.53;;;1.93;;
11535;SDS011;5824;49.336;8.652;2022-07-01T00:22:19;3.30;;;1.73;;
11535;SDS011;5824;49.336;8.652;2022-07-01T00:24:44;5.23;;;1.50;;
11535;SDS011;5824;49.336;8.652;2022-07-01T00:27:11;3.07;;;1.63;;
11535;SDS011;5824;49.336;8.652;2022-07-01T00:29:38;3.10;;;1.50;;
11535;SDS011;5824;49.336;8.652;2022-07-01T00:32:03;4.37;;;1.90;;
11535;SDS011;5824;49.336;8.652;2022-07-01T00:34:29;2.20;;;1.60;;
11535;SDS011;5824;49.336;8.652;2022-07-01T00:36:55;4.20;;;1.87;;
11535;SDS011;5824;49.336;8.652;2022-07-01T00:39:20;2.80;;;1.60;;
11535;SDS011;5824;49.336;8.652;2022-07-01T00:41:46;3.20;;;1.70;;
11535;SDS011;5824;49.336;8.652;2022-07-01T00:44:20;4.00;;;1.80;;
11535;SDS011;5824;49.336;8.652;2022-07-01T00:46:46;3.10;;;1.63;;
11535;SDS011;5824;49.336;8.652;2022-07-01T00:49:15;6.37;;;1.60;;
11535;SDS011;5824;49.336;8.652;2022-07-01T00:51:41;2.80;;;1.80;;
11535;SDS011;5824;49.336;8.652;2022-07-01T00:54:06;2.20;;;1.50;;
11535;SDS011;5824;49.336;8.652;2022-07-01T00:56:32;2.93;;;1.70;;
11535;SDS011;5824;49.336;8.652;2022-07-01T00:58:58;2.03;;;1.70;;
11535;SDS011;5824;49.336;8.652;2022-07-01T01:01:24;3.40;;;1.73;;
11535;SDS011;5824;49.336;8.652;2022-07-01T01:03:49;6.93;;;1.50;;
11535;SDS011;5824;49.336;8.652;2022-07-01T01:06:15;4.70;;;1.63;;
11535;SDS011;5824;49.336;8.652;2022-07-01T01:08:41;2.13;;;1.53;;
11535;SDS011;5824;49.336;8.652;2022-07-01T01:11:07;5.30;;;1.43;;
11535;SDS011;5824;49.336;8.652;2022-07-01T01:13:33;2.90;;;1.90;;
11535;SDS011;5824;49.336;8.652;2022-07-01T01:15:58;2.13;;;1.40;;
11535;SDS011;5824;49.336;8.652;2022-07-01T01:18:24;3.00;;;1.37;;
11535;SDS011;5824;49.336;8.652;2022-07-01T01:20:51;1.50;;;1.40;;
11535;SDS011;5824;49.336;8.652;2022-07-01T01:23:17;2.47;;;1.50;;
11535;SDS011;5824;49.336;8.652;2022-07-01T01:25:42;2.00;;;1.80;;
11535;SDS011;5824;49.336;8.652;2022-07-01T01:28:08;2.17;;;1.60;;
11535;SDS011;5824;49.336;8.652;2022-07-01T01:30:35;2.13;;;1.50;;
11535;SDS011;5824;49.336;8.652;2022-07-01T01:33:00;3.87;;;1.93;;
11535;SDS011;5824;49.336;8.652;2022-07-01T01:35:26;3.27;;;1.70;;
11535;SDS011;5824;49.336;8.652;2022-07-01T01:37:52;2.43;;;1.70;;
11535;SDS011;5824;49.336;8.652;2022-07-01T01:40:17;4.03;;;2.00;;
11535;SDS011;5824;49.336;8.652;2022-07-01T01:42:43;3.10;;;1.77;;
11535;SDS011;5824;49.336;8.652;2022-07-01T01:45:09;1.90;;;1.63;;
11535;SDS011;5824;49.336;8.652;2022-07-01T01:47:35;3.20;;;1.80;;
11535;SDS011;5824;49.336;8.652;2022-07-01T01:50:01;4.83;;;1.80;;
11535;SDS011;5824;49.336;8.652;2022-07-01T01:52:26;5.20;;;1.80;;
11535;SDS011;5824;49.336;8.652;2022-07-01T01:54:52;2.47;;;1.60;;
11535;SDS011;5824;49.336;8.652;2022-07-01T01:57:17;2.50;;;1.50;;
11535;SDS011;5824;49.336;8.652;2022-07-01T01:59:43;3.17;;;1.73;;
11535;SDS011;5824;49.336;8.652;2022-07-01T02:02:08;5.70;;;1.60;;
11535;SDS011;5824;49.336;8.652;2022-07-01T02:04:34;3.87;;;1.80;;
11535;SDS011;5824;49.336;8.652;2022-07-01T02:06:59;2.03;;;1.60;;
11535;SDS011;5824;49.336;8.652;2022-07-01T02:09:25;1.30;;;1.20;;
11535;SDS011;5824;49.336;8.652;2022-07-01T02:11:51;2.70;;;1.50;;
11535;SDS011;5824;49.336;8.652;2022-07-01T02:14:17;1.73;;;1.50;;
11535;SDS011;5824;49.336;8.652;2022-07-01T02:16:43;1.70;;;1.50;;
11535;SDS011;5824;49.336;8.652;2022-07-01T02:19:08;1.80;;;1.53;;
11535;SDS011;5824;49.336;8.652;2022-07-01T02:21:34;2.17;;;1.40;;
11535;SDS011;5824;49.336;8.652;2022-07-01T02:23:59;2.03;;;1.63;;
11535;SDS011;5824;49.336;8.652;2022-07-01T02:26:25;1.90;;;1.60;;
11535;SDS011;5824;49.336;8.652;2022-07-01T02:28:50;3.00;;;1.70;;
11535;SDS011;5824;49.336;8.652;2022-07-01T02:31:16;3.37;;;1.83;;
11535;SDS011;5824;49.336;8.652;2022-07-01T02:33:42;5.70;;;2.50;;
11535;SDS011;5824;49.336;8.652;2022-07-01T02:36:07;3.10;;;2.00;;
11535;SDS011;5824;49.336;8.652;2022-07-01T02:38:33;3.93;;;2.33;;
11535;SDS011;5824;49.336;8.652;2022-07-01T02:40:58;2.83;;;2.20;;
11535;SDS011;5824;49.336;8.652;2022-07-01T02:43:25;4.37;;;2.20;;
11535;SDS011;5824;49.336;8.652;2022-07-01T02:45:50;3.23;;;2.03;;
11535;SDS011;5824;49.336;8.652;2022-07-01T02:48:16;3.67;;;2.10;;
11535;SDS011;5824;49.336;8.652;2022-07-01T02:50:41;1.97;;;1.83;;
11535;SDS011;5824;49.336;8.652;2022-07-01T02:53:07;1.87;;;1.70;;
11535;SDS011;5824;49.336;8.652;2022-07-01T02:55:32;2.87;;;1.70;;
11535;SDS011;5824;49.336;8.652;2022-07-01T02:57:58;1.60;;;1.50;;
11535;SDS011;5824;49.336;8.652;2022-07-01T03:00:24;4.30;;;1.60;;
11535;SDS011;5824;49.336;8.652;2022-07-01T03:02:50;1.63;;;1.40;;
11535;SDS011;5824;49.336;8.652;2022-07-01T03:05:15;1.63;;;1.50;;
11535;SDS011;5824;49.336;8.652;2022-07-01T03:07:41;2.67;;;1.50;;
11535;SDS011;5824;49.336;8.652;2022-07-01T03:10:07;3.57;;;2.00;;
11535;SDS011;5824;49.336;8.652;2022-07-01T03:12:34;1.50;;;1.40;;
11535;SDS011;5824;49.336;8.652;2022-07-01T03:15:03;1.83;;;1.60;;
11535;SDS011;5824;49.336;8.652;2022-07-01T03:17:35;2.27;;;1.40;;
11535;SDS011;5824;49.336;8.652;2022-07-01T03:20:03;2.00;;;1.60;;
11535;SDS011;5824;49.336;8.652;2022-07-01T03:22:30;2.50;;;1.50;;
11535;SDS011;5824;49.336;8.652;2022-07-01T03:24:57;1.50;;;1.33;;
11535;SDS011;5824;49.336;8.652;2022-07-01T03:27:23;3.93;;;1.70;;
11535;SDS011;5824;49.336;8.652;2022-07-01T03:29:49;1.67;;;1.50;;
11535;SDS011;5824;49.336;8.652;2022-07-01T03:32:15;2.53;;;1.50;;
11535;SDS011;5824;49.336;8.652;2022-07-01T03:34:43;1.73;;;1.50;;
11535;SDS011;5824;49.336;8.652;2022-07-01T03:37:11;1.80;;;1.70;;
11535;SDS011;5824;49.336;8.652;2022-07-01T03:39:37;2.23;;;1.60;;
11535;SDS011;5824;49.336;8.652;2022-07-01T03:42:04;2.50;;;1.60;;
11535;SDS011;5824;49.336;8.652;2022-07-01T03:44:31;2.37;;;1.37;;
11535;SDS011;5824;49.336;8.652;2022-07-01T03:46:57;3.37;;;1.80;;
11535;SDS011;5824;49.336;8.652;2022-07-01T03:49:23;2.00;;;1.70;;
11535;SDS011;5824;49.336;8.652;2022-07-01T03:51:49;2.60;;;1.60;;
11535;SDS011;5824;49.336;8.652;2022-07-01T03:54:15;2.03;;;1.77;;
11535;SDS011;5824;49.336;8.652;2022-07-01T03:57:02;1.90;;;1.63;;
11535;SDS011;5824;49.336;8.652;2022-07-01T03:59:28;3.50;;;1.70;;
11535;SDS011;5824;49.336;8.652;2022-07-01T04:01:55;2.60;;;1.67;;
11535;SDS011;5824;49.336;8.652;2022-07-01T04:04:21;2.40;;;1.57;;
11535;SDS011;5824;49.336;8.652;2022-07-01T04:06:48;1.87;;;1.77;;
11535;SDS011;5824;49.336;8.652;2022-07-01T04:09:15;2.23;;;2.00;;
11535;SDS011;5824;49.336;8.652;2022-07-01T04:11:41;2.23;;;2.00;;
11535;SDS011;5824;49.336;8.652;2022-07-01T04:14:08;2.27;;;1.83;;
11535;SDS011;5824;49.336;8.652;2022-07-01T04:16:35;4.20;;;2.07;;
11535;SDS011;5824;49.336;8.652;2022-07-01T04:19:01;2.60;;;2.03;;
11535;SDS011;5824;49.336;8.652;2022-07-01T04:21:27;2.20;;;2.00;;
11535;SDS011;5824;49.336;8.652;2022-07-01T04:24:11;3.77;;;2.20;;
11535;SDS011;5824;49.336;8.652;2022-07-01T04:26:38;4.23;;;2.40;;
11535;SDS011;5824;49.336;8.652;2022-07-01T04:29:04;4.80;;;2.20;;
11535;SDS011;5824;49.336;8.652;2022-07-01T04:31:31;2.50;;;2.13;;
11535;SDS011;5824;49.336;8.652;2022-07-01T04:33:56;4.80;;;2.53;;
11535;SDS011;5824;49.336;8.652;2022-07-01T04:36:22;3.80;;;3.17;;
11535;SDS011;5824;49.336;8.652;2022-07-01T04:38:47;2.63;;;2.43;;
11535;SDS011;5824;49.336;8.652;2022-07-01T04:41:13;4.53;;;2.50;;
11535;SDS011;5824;49.336;8.652;2022-07-01T04:43:57;2.50;;;2.30;;
11535;SDS011;5824;49.336;8.652;2022-07-01T04:46:23;3.67;;;2.70;;
11535;SDS011;5824;49.336;8.652;2022-07-01T04:48:48;6.27;;;2.80;;
11535;SDS011;5824;49.336;8.652;2022-07-01T04:51:14;3.20;;;2.90;;
11535;SDS011;5824;49.336;8.652;2022-07-01T04:53:40;5.10;;;2.83;;
11535;SDS011;5824;49.336;8.652;2022-07-01T04:56:05;5.30;;;2.60;;
11535;SDS011;5824;49.336;8.652;2022-07-01T04:58:31;4.20;;;2.63;;
11535;SDS011;5824;49.336;8.652;2022-07-01T05:00:56;3.73;;;2.70;;
11535;SDS011;5824;49.336;8.652;2022-07-01T05:03:22;4.83;;;2.87;;
11535;SDS011;5824;49.336;8.652;2022-07-01T05:05:47;3.23;;;2.70;;
11535;SDS011;5824;49.336;8.652;2022-07-01T05:08:13;3.77;;;3.10;;
11535;SDS011;5824;49.336;8.652;2022-07-01T05:10:38;3.77;;;2.90;;
11535;SDS011;5824;49.336;8.652;2022-07-01T05:13:04;3.40;;;3.03;;
11535;SDS011;5824;49.336;8.652;2022-07-01T05:15:30;6.60;;;3.17;;
11535;SDS011;5824;49.336;8.652;2022-07-01T05:17:55;5.27;;;3.03;;
11535;SDS011;5824;49.336;8.652;2022-07-01T05:20:39;7.13;;;3.20;;
11535;SDS011;5824;49.336;8.652;2022-07-01T05:23:23;3.73;;;3.27;;
11535;SDS011;5824;49.336;8.652;2022-07-01T05:25:49;3.60;;;3.30;;
11535;SDS011;5824;49.336;8.652;2022-07-01T05:28:14;3.60;;;3.30;;
11535;SDS011;5824;49.336;8.652;2022-07-01T05:30:40;5.07;;;3.50;;
11535;SDS011;5824;49.336;8.652;2022-07-01T05:33:05;4.40;;;3.60;;
11535;SDS011;5824;49.336;8.652;2022-07-01T05:35:31;4.13;;;3.73;;
11535;SDS011;5824;49.336;8.652;2022-07-01T05:37:57;4.87;;;3.80;;
11535;SDS011;5824;49.336;8.652;2022-07-01T05:40:23;4.23;;;3.83;;
11535;SDS011;5824;49.336;8.652;2022-07-01T05:42:49;6.90;;;4.20;;
11535;SDS011;5824;49.336;8.652;2022-07-01T05:45:15;6.73;;;4.50;;
11535;SDS011;5824;49.336;8.652;2022-07-01T05:47:40;6.10;;;4.90;;
11535;SDS011;5824;49.336;8.652;2022-07-01T05:50:06;5.70;;;4.67;;
11535;SDS011;5824;49.336;8.652;2022-07-01T05:52:31;9.03;;;5.33;;
11535;SDS011;5824;49.336;8.652;2022-07-01T05:54:57;9.33;;;5.30;;
11535;SDS011;5824;49.336;8.652;2022-07-01T05:57:22;6.13;;;4.63;;
11535;SDS011;5824;49.336;8.652;2022-07-01T05:59:48;7.07;;;4.93;;
11535;SDS011;5824;49.336;8.652;2022-07-01T06:02:13;4.87;;;4.37;;
11535;SDS011;5824;49.336;8.652;2022-07-01T06:04:39;5.27;;;4.73;;
11535;SDS011;5824;49.336;8.652;2022-07-01T06:07:04;6.70;;;4.70;;
11535;SDS011;5824;49.336;8.652;2022-07-01T06:09:30;7.83;;;5.40;;
11535;SDS011;5824;49.336;8.652;2022-07-01T06:11:56;7.33;;;4.73;;
11535;SDS011;5824;49.336;8.652;2022-07-01T06:14:21;9.27;;;4.80;;
11535;SDS011;5824;49.336;8.652;2022-07-01T06:16:46;6.30;;;4.63;;
11535;SDS011;5824;49.336;8.652;2022-07-01T06:19:12;8.13;;;4.10;;
11535;SDS011;5824;49.336;8.652;2022-07-01T06:21:37;18.13;;;5.20;;
11535;SDS011;5824;49.336;8.652;2022-07-01T06:24:03;15.53;;;5.60;;
11535;SDS011;5824;49.336;8.652;2022-07-01T06:26:29;13.23;;;5.03;;
11535;SDS011;5824;49.336;8.652;2022-07-01T06:28:55;7.23;;;4.40;;
11535;SDS011;5824;49.336;8.652;2022-07-01T06:31:20;7.07;;;4.87;;
11535;SDS011;5824;49.336;8.652;2022-07-01T06:33:48;24.80;;;5.67;;
11535;SDS011;5824;49.336;8.652;2022-07-01T06:36:14;6.37;;;4.43;;
11535;SDS011;5824;49.336;8.652;2022-07-01T06:38:39;13.67;;;6.20;;
11535;SDS011;5824;49.336;8.652;2022-07-01T06:41:05;24.00;;;6.07;;
11535;SDS011;5824;49.336;8.652;2022-07-01T06:43:49;11.87;;;6.77;;
11535;SDS011;5824;49.336;8.652;2022-07-01T06:46:14;6.43;;;5.27;;
11535;SDS011;5824;49.336;8.652;2022-07-01T06:48:40;6.87;;;5.33;;
11535;SDS011;5824;49.336;8.652;2022-07-01T06:51:06;6.40;;;4.90;;
11535;SDS011;5824;49.336;8.652;2022-07-01T06:53:31;7.70;;;5.20;;
11535;SDS011;5824;49.336;8.652;2022-07-01T06:55:57;5.40;;;4.20;;
11535;SDS011;5824;49.336;8.652;2022-07-01T06:58:22;4.87;;;3.70;;
11535;SDS011;5824;49.336;8.652;2022-07-01T07:00:48;12.57;;;4.67;;
11535;SDS011;5824;49.336;8.652;2022-07-01T07:03:13;4.70;;;4.20;;
11535;SDS011;5824;49.336;8.652;2022-07-01T07:05:39;16.83;;;5.40;;
11535;SDS011;5824;49.336;8.652;2022-07-01T07:08:05;4.93;;;4.43;;
11535;SDS011;5824;49.336;8.652;2022-07-01T07:10:30;7.80;;;4.50;;
11535;SDS011;5824;49.336;8.652;2022-07-01T07:12:56;8.17;;;5.23;;
11535;SDS011;5824;49.336;8.652;2022-07-01T07:15:21;6.53;;;4.97;;
11535;SDS011;5824;49.336;8.652;2022-07-01T07:17:47;9.60;;;4.10;;
11535;SDS011;5824;49.336;8.652;2022-07-01T07:20:12;4.80;;;4.30;;
11535;SDS011;5824;49.336;8.652;2022-07-01T07:22:38;8.47;;;4.97;;
11535;SDS011;5824;49.336;8.652;2022-07-01T07:25:03;6.70;;;4.50;;
11535;SDS011;5824;49.336;8.652;2022-07-01T07:27:29;6.10;;;4.53;;
11535;SDS011;5824;49.336;8.652;2022-07-01T07:29:55;10.00;;;4.47;;
11535;SDS011;5824;49.336;8.652;2022-07-01T07:32:20;8.83;;;5.10;;
11535;SDS011;5824;49.336;8.652;2022-07-01T07:34:46;7.00;;;4.40;;
11535;SDS011;5824;49.336;8.652;2022-07-01T07:37:11;11.23;;;5.10;;
11535;SDS011;5824;49.336;8.652;2022-07-01T07:39:37;10.40;;;4.40;;
11535;SDS011;5824;49.336;8.652;2022-07-01T07:42:03;6.40;;;4.90;;
11535;SDS011;5824;49.336;8.652;2022-07-01T07:44:30;10.70;;;4.70;;
11535;SDS011;5824;49.336;8.652;2022-07-01T07:46:56;4.73;;;4.33;;
11535;SDS011;5824;49.336;8.652;2022-07-01T07:49:22;5.17;;;4.20;;
11535;SDS011;5824;49.336;8.652;2022-07-01T07:51:48;4.87;;;4.37;;
11535;SDS011;5824;49.336;8.652;2022-07-01T07:54:13;5.47;;;4.00;;
11535;SDS011;5824;49.336;8.652;2022-07-01T07:56:39;4.33;;;3.93;;
11535;SDS011;5824;49.336;8.652;2022-07-01T07:59:04;4.67;;;3.80;;
11535;SDS011;5824;49.336;8.652;2022-07-01T08:01:30;5.90;;;4.80;;
11535;SDS011;5824;49.336;8.652;2022-07-01T08:03:55;4.30;;;3.90;;
11535;SDS011;5824;49.336;8.652;2022-07-01T08:06:21;4.53;;;3.90;;
11535;SDS011;5824;49.336;8.652;2022-07-01T08:08:46;8.10;;;3.67;;
11535;SDS011;5824;49.336;8.652;2022-07-01T08:11:12;4.60;;;4.13;;
11535;SDS011;5824;49.336;8.652;2022-07-01T08:13:38;5.77;;;4.57;;
11535;SDS011;5824;49.336;8.652;2022-07-01T08:16:03;7.07;;;4.53;;
11535;SDS011;5824;49.336;8.652;2022-07-01T08:18:29;4.80;;;4.30;;
11535;SDS011;5824;49.336;8.652;2022-07-01T08:20:55;7.53;;;4.10;;
11535;SDS011;5824;49.336;8.652;2022-07-01T08:23:20;5.37;;;4.30;;
11535;SDS011;5824;49.336;8.652;2022-07-01T08:25:48;4.70;;;3.90;;
11535;SDS011;5824;49.336;8.652;2022-07-01T08:28:14;7.63;;;3.80;;
11535;SDS011;5824;49.336;8.652;2022-07-01T08:30:40;4.23;;;3.83;;
11535;SDS011;5824;49.336;8.652;2022-07-01T08:33:05;6.50;;;4.50;;
11535;SDS011;5824;49.336;8.652;2022-07-01T08:35:31;5.07;;;4.57;;
11535;SDS011;5824;49.336;8.652;2022-07-01T08:37:56;5.50;;;4.10;;
11535;SDS011;5824;49.336;8.652;2022-07-01T08:40:26;7.27;;;4.30;;
11535;SDS011;5824;49.336;8.652;2022-07-01T08:42:59;9.43;;;5.03;;
11535;SDS011;5824;49.336;8.652;2022-07-01T08:45:27;7.13;;;5.03;;
11535;SDS011;5824;49.336;8.652;2022-07-01T08:47:56;7.47;;;5.07;;
11535;SDS011;5824;49.336;8.652;2022-07-01T08:50:26;8.67;;;5.30;;
11535;SDS011;5824;49.336;8.652;2022-07-01T08:52:53;8.93;;;5.37;;
11535;SDS011;5824;49.336;8.652;2022-07-01T08:55:19;6.40;;;4.90;;
11535;SDS011;5824;49.336;8.652;2022-07-01T08:57:46;7.43;;;4.80;;
11535;SDS011;5824;49.336;8.652;2022-07-01T09:00:12;8.37;;;4.83;;
11535;SDS011;5824;49.336;8.652;2022-07-01T09:05:23;6.37;;;5.30;;
11535;SDS011;5824;49.336;8.652;2022-07-01T09:07:57;6.93;;;4.70;;
11535;SDS011;5824;49.336;8.652;2022-07-01T09:10:30;4.20;;;3.80;;
11535;SDS011;5824;49.336;8.652;2022-07-01T09:13:03;5.13;;;3.83;;
11535;SDS011;5824;49.336;8.652;2022-07-01T09:15:30;4.70;;;3.47;;
11535;SDS011;5824;49.336;8.652;2022-07-01T09:17:57;5.57;;;3.30;;
11535;SDS011;5824;49.336;8.652;2022-07-01T09:20:42;5.17;;;3.30;;
11535;SDS011;5824;49.336;8.652;2022-07-01T09:23:16;5.97;;;3.90;;
11535;SDS011;5824;49.336;8.652;2022-07-01T09:25:47;5.10;;;2.93;;
11535;SDS011;5824;49.336;8.652;2022-07-01T09:30:48;6.07;;;3.50;;
11535;SDS011;5824;49.336;8.652;2022-07-01T09:33:19;5.27;;;3.10;;
11535;SDS011;5824;49.336;8.652;2022-07-01T09:35:49;2.87;;;2.57;;
11535;SDS011;5824;49.336;8.652;2022-07-01T09:38:17;4.20;;;3.30;;
11535;SDS011;5824;49.336;8.652;2022-07-01T09:41:02;6.87;;;3.80;;
11535;SDS011;5824;49.336;8.652;2022-07-01T09:43:30;5.17;;;3.33;;
11535;SDS011;5824;49.336;8.652;2022-07-01T09:46:17;5.40;;;3.40;;
11535;SDS011;5824;49.336;8.652;2022-07-01T09:48:43;4.73;;;3.43;;
11535;SDS011;5824;49.336;8.652;2022-07-01T09:51:11;4.20;;;3.47;;
11535;SDS011;5824;49.336;8.652;2022-07-01T09:53:37;3.40;;;3.10;;
11535;SDS011;5824;49.336;8.652;2022-07-01T09:56:03;6.93;;;3.40;;
11535;SDS011;5824;49.336;8.652;2022-07-01T09:58:29;3.33;;;3.03;;
11535;SDS011;5824;49.336;8.652;2022-07-01T10:00:57;3.70;;;3.30;;
11535;SDS011;5824;49.336;8.652;2022-07-01T10:03:23;5.07;;;3.90;;
11535;SDS011;5824;49.336;8.652;2022-07-01T10:05:58;4.23;;;3.43;;
11535;SDS011;5824;49.336;8.652;2022-07-01T10:08:42;3.93;;;3.63;;
11535;SDS011;5824;49.336;8.652;2022-07-01T10:11:17;6.73;;;4.50;;
11535;SDS011;5824;49.336;8.652;2022-07-01T10:14:04;7.17;;;4.40;;
11535;SDS011;5824;49.336;8.652;2022-07-01T10:16:31;5.43;;;4.60;;
11535;SDS011;5824;49.336;8.652;2022-07-01T10:18:57;4.90;;;4.20;;
11535;SDS011;5824;49.336;8.652;2022-07-01T10:21:27;5.53;;;4.30;;
11535;SDS011;5824;49.336;8.652;2022-07-01T10:24:10;4.50;;;4.07;;
11535;SDS011;5824;49.336;8.652;2022-07-01T10:26:45;4.50;;;3.50;;
11535;SDS011;5824;49.336;8.652;2022-07-01T10:29:26;4.17;;;3.77;;
11535;SDS011;5824;49.336;8.652;2022-07-01T10:32:08;4.10;;;3.20;;
11535;SDS011;5824;49.336;8.652;2022-07-01T10:34:37;4.60;;;3.47;;
11535;SDS011;5824;49.336;8.652;2022-07-01T10:37:05;5.60;;;3.37;;
11535;SDS011;5824;49.336;8.652;2022-07-01T10:42:26;5.43;;;3.40;;
11535;SDS011;5824;49.336;8.652;2022-07-01T10:45:00;5.10;;;3.50;;
11535;SDS011;5824;49.336;8.652;2022-07-01T10:47:34;5.23;;;3.07;;
11535;SDS011;5824;49.336;8.652;2022-07-01T10:50:08;4.30;;;3.27;;
11535;SDS011;5824;49.336;8.652;2022-07-01T10:52:35;4.23;;;3.40;;
11535;SDS011;5824;49.336;8.652;2022-07-01T10:55:03;5.70;;;3.57;;
11535;SDS011;5824;49.336;8.652;2022-07-01T10:57:37;6.80;;;3.50;;
11535;SDS011;5824;49.336;8.652;2022-07-01T11:02:34;4.80;;;3.47;;
11535;SDS011;5824;49.336;8.652;2022-07-01T11:05:12;5.30;;;3.30;;
11535;SDS011;5824;49.336;8.652;2022-07-01T11:07:40;4.90;;;3.33;;
11535;SDS011;5824;49.336;8.652;2022-07-01T11:10:08;8.20;;;3.23;;
11535;SDS011;5824;49.336;8.652;2022-07-01T11:12:38;4.97;;;3.60;;
11535;SDS011;5824;49.336;8.652;2022-07-01T11:15:06;5.13;;;3.20;;
11535;SDS011;5824;49.336;8.652;2022-07-01T11:17:32;4.40;;;2.90;;
11535;SDS011;5824;49.336;8.652;2022-07-01T11:19:59;4.50;;;3.00;;
11535;SDS011;5824;49.336;8.652;2022-07-01T11:22:28;5.10;;;2.78;;
11535;SDS011;5824;49.336;8.652;2022-07-01T11:24:58;4.43;;;2.80;;
11535;SDS011;5824;49.336;8.652;2022-07-01T11:27:26;4.00;;;2.70;;
11535;SDS011;5824;49.336;8.652;2022-07-01T11:29:54;4.07;;;2.70;;
11535;SDS011;5824;49.336;8.652;2022-07-01T11:32:25;4.53;;;2.65;;
11535;SDS011;5824;49.336;8.652;2022-07-01T11:34:52;5.32;;;2.97;;
11535;SDS011;5824;49.336;8.652;2022-07-01T11:37:17;4.40;;;2.58;;
11535;SDS011;5824;49.336;8.652;2022-07-01T11:42:31;3.35;;;2.80;;
11535;SDS011;5824;49.336;8.652;2022-07-01T11:44:57;4.30;;;2.78;;
11535;SDS011;5824;49.336;8.652;2022-07-01T11:47:23;5.30;;;2.90;;
11535;SDS011;5824;49.336;8.652;2022-07-01T11:49:49;6.45;;;3.05;;
11535;SDS011;5824;49.336;8.652;2022-07-01T11:52:19;3.60;;;2.25;;
11535;SDS011;5824;49.336;8.652;2022-07-01T11:54:47;4.43;;;2.60;;
11535;SDS011;5824;49.336;8.652;2022-07-01T11:57:14;3.45;;;2.80;;
11535;SDS011;5824;49.336;8.652;2022-07-01T11:59:48;5.45;;;2.85;;
11535;SDS011;5824;49.336;8.652;2022-07-01T12:02:17;3.13;;;2.42;;
11535;SDS011;5824;49.336;8.652;2022-07-01T12:04:43;4.25;;;2.70;;
11535;SDS011;5824;49.336;8.652;2022-07-01T12:07:10;5.25;;;2.40;;
11535;SDS011;5824;49.336;8.652;2022-07-01T12:09:37;4.90;;;2.92;;
11535;SDS011;5824;49.336;8.652;2022-07-01T12:12:03;3.30;;;2.70;;
11535;SDS011;5824;49.336;8.652;2022-07-01T12:14:31;5.40;;;2.90;;
11535;SDS011;5824;49.336;8.652;2022-07-01T12:17:08;3.43;;;2.70;;
11535;SDS011;5824;49.336;8.652;2022-07-01T12:19:40;4.27;;;2.67;;
11535;SDS011;5824;49.336;8.652;2022-07-01T12:22:08;4.30;;;2.60;;
11535;SDS011;5824;49.336;8.652;2022-07-01T12:24:35;3.87;;;2.70;;
11535;SDS011;5824;49.336;8.652;2022-07-01T12:27:05;5.00;;;2.87;;
11535;SDS011;5824;49.336;8.652;2022-07-01T12:32:17;4.30;;;2.97;;
11535;SDS011;5824;49.336;8.652;2022-07-01T12:34:51;4.67;;;2.83;;
11535;SDS011;5824;49.336;8.652;2022-07-01T12:37:31;5.03;;;3.20;;
11535;SDS011;5824;49.336;8.652;2022-07-01T12:40:00;4.33;;;3.00;;
11535;SDS011;5824;49.336;8.652;2022-07-01T12:42:32;4.17;;;3.20;;
11535;SDS011;5824;49.336;8.652;2022-07-01T12:45:00;4.43;;;2.80;;
11535;SDS011;5824;49.336;8.652;2022-07-01T12:47:32;5.33;;;3.10;;
11535;SDS011;5824;49.336;8.652;2022-07-01T12:50:08;4.00;;;2.70;;
11535;SDS011;5824;49.336;8.652;2022-07-01T12:52:34;4.03;;;2.87;;
11535;SDS011;5824;49.336;8.652;2022-07-01T12:55:00;4.07;;;2.70;;
11535;SDS011;5824;49.336;8.652;2022-07-01T12:57:29;4.13;;;3.00;;
11535;SDS011;5824;49.336;8.652;2022-07-01T12:59:56;4.30;;;2.90;;
11535;SDS011;5824;49.336;8.652;2022-07-01T13:02:22;3.83;;;2.77;;
11535;SDS011;5824;49.336;8.652;2022-07-01T13:04:48;3.17;;;2.50;;
11535;SDS011;5824;49.336;8.652;2022-07-01T13:07:14;3.08;;;2.30;;
11535;SDS011;5824;49.336;8.652;2022-07-01T13:09:39;3.35;;;2.47;;
11535;SDS011;5824;49.336;8.652;2022-07-01T13:12:05;3.08;;;2.20;;
11535;SDS011;5824;49.336;8.652;2022-07-01T13:14:31;3.90;;;2.30;;
11535;SDS011;5824;49.336;8.652;2022-07-01T13:16:57;4.00;;;2.47;;
11535;SDS011;5824;49.336;8.652;2022-07-01T13:19:22;3.22;;;2.10;;
11535;SDS011;5824;49.336;8.652;2022-07-01T13:21:48;5.05;;;2.10;;
11535;SDS011;5824;49.336;8.652;2022-07-01T13:24:13;3.08;;;2.05;;
11535;SDS011;5824;49.336;8.652;2022-07-01T13:26:39;2.55;;;1.75;;
11535;SDS011;5824;49.336;8.652;2022-07-01T13:29:05;4.60;;;2.35;;
11535;SDS011;5824;49.336;8.652;2022-07-01T13:31:31;2.80;;;1.90;;
11535;SDS011;5824;49.336;8.652;2022-07-01T13:33:57;5.20;;;2.10;;
11535;SDS011;5824;49.336;8.652;2022-07-01T13:36:22;3.03;;;2.20;;
11535;SDS011;5824;49.336;8.652;2022-07-01T13:38:48;3.38;;;2.10;;
11535;SDS011;5824;49.336;8.652;2022-07-01T13:41:14;3.30;;;1.98;;
11535;SDS011;5824;49.336;8.652;2022-07-01T13:43:40;3.55;;;2.08;;
11535;SDS011;5824;49.336;8.652;2022-07-01T13:46:06;3.77;;;2.30;;
11535;SDS011;5824;49.336;8.652;2022-07-01T13:48:32;3.50;;;2.10;;
11535;SDS011;5824;49.336;8.652;2022-07-01T13:50:57;2.90;;;2.00;;
11535;SDS011;5824;49.336;8.652;2022-07-01T13:53:23;3.30;;;1.93;;
11535;SDS011;5824;49.336;8.652;2022-07-01T13:55:48;3.03;;;2.10;;
11535;SDS011;5824;49.336;8.652;2022-07-01T13:58:14;4.93;;;2.40;;
11535;SDS011;5824;49.336;8.652;2022-07-01T14:00:40;2.80;;;1.90;;
11535;SDS011;5824;49.336;8.652;2022-07-01T14:03:06;3.73;;;2.00;;
11535;SDS011;5824;49.336;8.652;2022-07-01T14:05:35;2.80;;;2.17;;
11535;SDS011;5824;49.336;8.652;2022-07-01T14:08:01;3.83;;;1.97;;
11535;SDS011;5824;49.336;8.652;2022-07-01T14:10:26;3.37;;;2.00;;
11535;SDS011;5824;49.336;8.652;2022-07-01T14:12:52;2.77;;;2.00;;
11535;SDS011;5824;49.336;8.652;2022-07-01T14:15:18;3.57;;;2.07;;
11535;SDS011;5824;49.336;8.652;2022-07-01T14:17:43;4.40;;;2.03;;
11535;SDS011;5824;49.336;8.652;2022-07-01T14:20:09;2.50;;;1.80;;
11535;SDS011;5824;49.336;8.652;2022-07-01T14:22:35;3.58;;;2.00;;
11535;SDS011;5824;49.336;8.652;2022-07-01T14:25:01;3.05;;;1.70;;
11535;SDS011;5824;49.336;8.652;2022-07-01T14:27:26;3.38;;;1.80;;
11535;SDS011;5824;49.336;8.652;2022-07-01T14:29:52;3.53;;;1.92;;
11535;SDS011;5824;49.336;8.652;2022-07-01T14:32:17;3.47;;;1.80;;
11535;SDS011;5824;49.336;8.652;2022-07-01T14:34:46;2.53;;;1.60;;
11535;SDS011;5824;49.336;8.652;2022-07-01T14:37:11;4.25;;;1.80;;
11535;SDS011;5824;49.336;8.652;2022-07-01T14:39:37;2.40;;;1.60;;
11535;SDS011;5824;49.336;8.652;2022-07-01T14:42:02;3.17;;;1.70;;
11535;SDS011;5824;49.336;8.652;2022-07-01T14:44:28;3.05;;;1.95;;
11535;SDS011;5824;49.336;8.652;2022-07-01T14:46:54;2.63;;;1.80;;
11535;SDS011;5824;49.336;8.652;2022-07-01T14:49:19;4.68;;;1.70;;
11535;SDS011;5824;49.336;8.652;2022-07-01T14:51:45;3.67;;;2.05;;
11535;SDS011;5824;49.336;8.652;2022-07-01T14:54:10;4.60;;;1.60;;
11535;SDS011;5824;49.336;8.652;2022-07-01T14:56:36;3.17;;;1.50;;
11535;SDS011;5824;49.336;8.652;2022-07-01T14:59:02;2.40;;;1.50;;
11535;SDS011;5824;49.336;8.652;2022-07-01T15:01:27;3.58;;;1.52;;
11535;SDS011;5824;49.336;8.652;2022-07-01T15:03:53;2.40;;;1.30;;
11535;SDS011;5824;49.336;8.652;2022-07-01T15:06:19;3.37;;;1.30;;
11535;SDS011;5824;49.336;8.652;2022-07-01T15:08:44;2.17;;;1.40;;
11535;SDS011;5824;49.336;8.652;2022-07-01T15:11:10;4.87;;;1.90;;
11535;SDS011;5824;49.336;8.652;2022-07-01T15:13:35;3.27;;;1.60;;
11535;SDS011;5824;49.336;8.652;2022-07-01T15:16:02;2.87;;;1.77;;